createdAt,value
2018-11-21T00:00:18.455Z,25.53
2018-11-21T00:02:47.536Z,22.73
2018-11-21T00:05:16.487Z,23.33
2018-11-21T00:07:46.318Z,28.40
2018-11-21T00:10:15.062Z,28.37
2018-11-21T00:12:49.179Z,23.30
2018-11-21T00:15:18.037Z,26.07
2018-11-21T00:17:46.814Z,28.07
2018-11-21T00:20:15.531Z,25.63
2018-11-21T00:22:44.315Z,27.90
2018-11-21T00:25:13.489Z,23.80
2018-11-21T00:27:42.226Z,27.03
2018-11-21T00:30:13.216Z,24.17
2018-11-21T00:32:43.155Z,27.63
2018-11-21T00:35:11.973Z,23.53
2018-11-21T00:37:40.728Z,25.57
2018-11-21T00:40:11.142Z,28.40
2018-11-21T00:42:46.471Z,23.03
2018-11-21T00:45:09.798Z,23.57
2018-11-21T00:47:38.730Z,22.70
2018-11-21T00:50:07.812Z,23.80
2018-11-21T00:52:36.956Z,27.20
2018-11-21T00:55:07.146Z,26.00
2018-11-21T00:57:35.942Z,23.93
2018-11-21T01:00:06.799Z,24.90
2018-11-21T01:02:35.589Z,25.67
2018-11-21T01:05:04.566Z,25.07
2018-11-21T01:07:33.384Z,22.87
2018-11-21T01:10:02.104Z,27.00
2018-11-21T01:12:30.816Z,23.47
2018-11-21T01:14:59.557Z,26.83
2018-11-21T01:17:28.334Z,24.37
2018-11-21T01:19:57.036Z,24.33
2018-11-21T01:22:25.790Z,25.93
2018-11-21T01:24:54.578Z,26.90
2018-11-21T01:27:23.415Z,28.27
2018-11-21T01:29:52.100Z,29.07
2018-11-21T01:32:20.893Z,25.03
2018-11-21T01:34:49.826Z,26.53
2018-11-21T01:37:18.538Z,24.07
2018-11-21T01:39:47.440Z,24.20
2018-11-21T01:42:16.321Z,27.83
2018-11-21T01:44:45.045Z,25.07
2018-11-21T01:47:13.806Z,21.13
2018-11-21T01:49:42.588Z,24.40
2018-11-21T01:52:11.405Z,24.00
2018-11-21T01:54:40.155Z,27.00
2018-11-21T01:57:09.009Z,24.67
2018-11-21T01:59:38.223Z,25.67
2018-11-21T02:02:06.949Z,24.87
2018-11-21T02:04:35.941Z,25.50
2018-11-21T02:07:05.448Z,23.83
2018-11-21T02:09:34.230Z,25.93
2018-11-21T02:12:02.995Z,24.20
2018-11-21T02:14:31.765Z,25.80
2018-11-21T02:17:00.604Z,25.20
2018-11-21T02:19:29.285Z,28.60
2018-11-21T02:21:58.050Z,26.47
2018-11-21T02:24:26.873Z,22.33
2018-11-21T02:26:55.649Z,24.33
2018-11-21T02:29:24.380Z,27.23
2018-11-21T02:31:53.160Z,27.70
2018-11-21T02:34:22.049Z,26.83
2018-11-21T02:36:50.899Z,26.10
2018-11-21T02:39:19.762Z,26.90
2018-11-21T02:41:48.634Z,27.77
2018-11-21T02:44:17.473Z,23.93
2018-11-21T02:46:46.244Z,25.90
2018-11-21T02:49:15.019Z,26.00
2018-11-21T02:51:43.887Z,26.47
2018-11-21T02:54:12.681Z,26.47
2018-11-21T02:57:19.164Z,28.47
2018-11-21T02:59:48.988Z,24.90
2018-11-21T03:02:17.828Z,26.20
2018-11-21T03:04:46.525Z,24.50
2018-11-21T03:07:15.362Z,25.97
2018-11-21T03:09:44.229Z,24.30
2018-11-21T03:12:13.042Z,26.33
2018-11-21T03:14:41.804Z,27.83
2018-11-21T03:17:10.585Z,27.97
2018-11-21T03:19:39.376Z,25.30
2018-11-21T03:22:08.180Z,27.37
2018-11-21T03:24:36.925Z,28.50
2018-11-21T03:27:05.953Z,25.07
2018-11-21T03:29:34.673Z,26.77
2018-11-21T03:32:03.472Z,22.93
2018-11-21T03:34:32.228Z,23.33
2018-11-21T03:37:01.018Z,24.53
2018-11-21T03:39:29.795Z,27.17
2018-11-21T03:41:58.522Z,25.73
2018-11-21T03:44:27.264Z,25.93
2018-11-21T03:46:56.053Z,25.70
2018-11-21T03:49:24.800Z,23.90
2018-11-21T03:51:53.505Z,23.87
2018-11-21T03:54:22.286Z,25.97
2018-11-21T03:56:51.040Z,26.60
2018-11-21T03:59:19.831Z,23.27
2018-11-21T04:01:48.538Z,24.07
2018-11-21T04:04:17.280Z,26.77
2018-11-21T04:06:46.051Z,25.63
2018-11-21T04:09:14.841Z,28.13
2018-11-21T04:11:43.641Z,27.97
2018-11-21T04:14:12.410Z,26.00
2018-11-21T04:16:41.179Z,20.43
2018-11-21T04:19:09.923Z,20.80
2018-11-21T04:21:38.636Z,23.47
2018-11-21T04:24:07.453Z,20.47
2018-11-21T04:26:36.190Z,22.53
2018-11-21T04:29:05.053Z,22.60
2018-11-21T04:31:33.816Z,25.50
2018-11-21T04:34:02.585Z,20.43
2018-11-21T04:36:31.308Z,20.57
2018-11-21T04:39:00.073Z,25.00
2018-11-21T04:41:28.833Z,21.57
2018-11-21T04:43:57.597Z,22.37
2018-11-21T04:46:26.313Z,22.43
2018-11-21T04:48:55.069Z,23.87
2018-11-21T04:51:23.840Z,21.23
2018-11-21T04:53:52.592Z,22.80
2018-11-21T04:56:21.311Z,20.93
2018-11-21T04:58:50.061Z,20.10
2018-11-21T05:01:18.806Z,24.93
2018-11-21T05:03:47.594Z,23.67
2018-11-21T05:06:16.381Z,23.57
2018-11-21T05:08:45.173Z,22.57
2018-11-21T05:11:13.963Z,22.90
2018-11-21T05:13:43.180Z,21.50
2018-11-21T05:16:12.226Z,19.67
2018-11-21T05:18:40.964Z,20.03
2018-11-21T05:21:09.704Z,22.00
2018-11-21T05:23:38.454Z,20.30
2018-11-21T05:26:07.403Z,21.40
2018-11-21T05:28:38.695Z,21.63
2018-11-21T05:31:07.421Z,20.90
2018-11-21T05:33:36.163Z,20.00
2018-11-21T05:36:04.964Z,21.80
2018-11-21T05:38:33.741Z,20.07
2018-11-21T05:41:02.493Z,22.37
2018-11-21T05:43:31.219Z,22.07
2018-11-21T05:46:00.069Z,21.10
2018-11-21T05:48:28.710Z,19.43
2018-11-21T05:50:57.457Z,19.20
2018-11-21T05:53:26.206Z,21.47
2018-11-21T05:55:54.910Z,20.83
2018-11-21T05:58:23.656Z,21.40
2018-11-21T06:00:52.423Z,19.03
2018-11-21T06:03:21.153Z,21.37
2018-11-21T06:05:49.860Z,19.37
2018-11-21T06:08:18.676Z,24.63
2018-11-21T06:10:47.408Z,20.07
2018-11-21T06:13:16.236Z,17.27
2018-11-21T06:15:45.029Z,19.90
2018-11-21T06:18:13.884Z,18.40
2018-11-21T06:20:42.664Z,21.17
2018-11-21T06:23:11.419Z,21.90
2018-11-21T06:25:40.131Z,19.13
2018-11-21T06:28:08.868Z,20.20
2018-11-21T06:30:37.580Z,19.03
2018-11-21T06:33:06.501Z,19.93
2018-11-21T06:35:35.232Z,19.27
2018-11-21T06:38:03.951Z,21.23
2018-11-21T06:40:32.766Z,19.63
2018-11-21T06:43:01.546Z,18.63
2018-11-21T06:45:30.258Z,19.27
2018-11-21T06:47:58.999Z,21.53
2018-11-21T06:50:27.771Z,19.90
2018-11-21T06:52:57.667Z,16.97
2018-11-21T06:55:26.460Z,20.07
2018-11-21T06:57:55.163Z,19.07
2018-11-21T07:00:23.903Z,21.33
2018-11-21T07:02:52.596Z,19.93
2018-11-21T07:05:21.362Z,18.87
2018-11-21T07:07:50.124Z,16.83
2018-11-21T07:10:18.885Z,19.37
2018-11-21T07:12:47.932Z,23.70
2018-11-21T07:15:16.885Z,20.63
2018-11-21T07:17:45.527Z,21.07
2018-11-21T07:20:14.377Z,21.23
2018-11-21T07:22:43.138Z,17.83
2018-11-21T07:25:15.948Z,21.03
2018-11-21T07:27:44.936Z,20.50
2018-11-21T07:30:14.989Z,19.03
2018-11-21T07:32:43.733Z,20.30
2018-11-21T07:35:17.767Z,19.13
2018-11-21T07:37:42.117Z,17.37
2018-11-21T07:40:14.752Z,16.23
2018-11-21T07:42:43.566Z,17.20
2018-11-21T07:45:13.717Z,17.17
2018-11-21T07:47:43.555Z,19.53
2018-11-21T07:50:15.077Z,19.83
2018-11-21T07:52:43.909Z,20.97
2018-11-21T07:55:13.264Z,18.83
2018-11-21T07:57:54.526Z,19.60
2018-11-21T08:01:04.299Z,16.57
2018-11-21T08:03:34.984Z,21.10
2018-11-21T08:06:06.766Z,19.40
2018-11-21T08:08:53.625Z,21.00
2018-11-21T08:11:47.394Z,20.10
2018-11-21T08:14:35.307Z,19.03
2018-11-21T08:17:26.619Z,20.10
2018-11-21T08:20:13.325Z,22.27
2018-11-21T08:22:57.244Z,18.83
2018-11-21T08:25:38.248Z,20.50
2018-11-21T08:28:20.021Z,17.40
2018-11-21T08:30:49.543Z,18.43
2018-11-21T08:33:18.365Z,21.80
2018-11-21T08:35:47.402Z,20.03
2018-11-21T08:38:16.678Z,16.20
2018-11-21T08:40:45.725Z,19.73
2018-11-21T08:43:14.455Z,16.33
2018-11-21T08:45:43.176Z,17.60
2018-11-21T08:48:12.436Z,18.13
2018-11-21T08:50:41.240Z,17.37
2018-11-21T08:53:09.933Z,18.13
2018-11-21T08:55:38.703Z,21.20
2018-11-21T08:58:08.109Z,18.13
2018-11-21T09:00:36.819Z,16.43
2018-11-21T09:03:06.209Z,19.17
2018-11-21T09:05:35.003Z,16.67
2018-11-21T09:08:04.240Z,18.57
2018-11-21T09:13:01.432Z,19.47
2018-11-21T09:15:30.176Z,17.83
2018-11-21T09:17:58.915Z,13.27
2018-11-21T09:20:27.730Z,17.27
2018-11-21T09:22:56.445Z,19.43
2018-11-21T09:25:25.137Z,17.23
2018-11-21T09:27:53.855Z,16.77
2018-11-21T09:30:23.557Z,18.43
2018-11-21T09:32:54.002Z,18.80
2018-11-21T09:35:22.690Z,17.33
2018-11-21T09:37:51.415Z,16.23
2018-11-21T09:40:21.478Z,16.03
2018-11-21T09:42:51.490Z,19.97
2018-11-21T09:45:22.630Z,15.87
2018-11-21T09:47:51.333Z,16.53
2018-11-21T09:50:27.600Z,19.67
2018-11-21T09:52:56.355Z,16.07
2018-11-21T09:55:25.124Z,18.17
2018-11-21T09:57:53.899Z,15.67
2018-11-21T10:00:59.501Z,16.73
2018-11-21T10:03:29.876Z,17.53
2018-11-21T10:06:31.477Z,18.47
2018-11-21T10:09:12.726Z,20.03
2018-11-21T10:11:41.471Z,16.97
2018-11-21T10:14:10.165Z,17.63
2018-11-21T10:16:38.944Z,18.50
2018-11-21T10:19:07.910Z,19.20
2018-11-21T10:21:37.035Z,19.17
2018-11-21T10:24:05.748Z,18.77
2018-11-21T10:26:34.451Z,20.83
2018-11-21T10:29:03.162Z,18.07
2018-11-21T10:31:31.888Z,30.37
2018-11-21T10:34:00.609Z,19.43
2018-11-21T10:36:29.320Z,20.17
2018-11-21T10:38:58.045Z,18.73
2018-11-21T10:41:26.792Z,20.17
2018-11-21T10:43:55.508Z,19.57
2018-11-21T10:46:24.305Z,18.50
2018-11-21T10:48:53.057Z,19.60
2018-11-21T10:51:21.843Z,17.87
2018-11-21T10:53:50.756Z,19.97
2018-11-21T10:56:19.530Z,18.43
2018-11-21T10:58:48.336Z,18.07
2018-11-21T11:01:35.112Z,18.23
2018-11-21T11:04:10.749Z,19.43
2018-11-21T11:06:51.885Z,19.93
2018-11-21T11:09:58.482Z,22.20
2018-11-21T11:12:58.436Z,19.20
2018-11-21T11:15:49.408Z,23.00
2018-11-21T11:18:34.884Z,17.57
2018-11-21T11:21:22.016Z,20.67
2018-11-21T11:24:11.444Z,21.23
2018-11-21T11:26:48.413Z,20.90
2018-11-21T11:29:39.213Z,17.00
2018-11-21T11:32:27.590Z,20.93
2018-11-21T11:35:07.977Z,23.63
2018-11-21T11:37:52.067Z,19.83
2018-11-21T11:40:52.758Z,21.07
2018-11-21T11:43:49.651Z,20.77
2018-11-21T11:46:31.378Z,20.07
2018-11-21T11:49:17.837Z,18.50
2018-11-21T11:52:08.419Z,19.27
2018-11-21T11:55:11.260Z,21.37
2018-11-21T11:57:56.570Z,16.40
2018-11-21T12:00:44.511Z,20.03
2018-11-21T12:03:31.331Z,18.57
2018-11-21T12:06:13.203Z,23.77
2018-11-21T12:09:00.769Z,22.13
2018-11-21T12:11:47.907Z,18.20
2018-11-21T12:14:50.952Z,17.80
2018-11-21T12:17:31.420Z,20.53
2018-11-21T12:20:27.832Z,18.70
2018-11-21T12:23:22.127Z,19.10
2018-11-21T12:26:10.577Z,18.93
2018-11-21T12:29:00.459Z,20.90
2018-11-21T12:32:03.855Z,19.40
2018-11-21T12:34:57.500Z,19.27
2018-11-21T12:37:38.081Z,19.80
2018-11-21T12:40:25.540Z,22.67
2018-11-21T12:43:13.472Z,21.07
2018-11-21T12:46:08.511Z,19.20
2018-11-21T12:48:52.464Z,21.70
2018-11-21T12:51:44.110Z,23.30
2018-11-21T12:54:32.649Z,20.70
2018-11-21T12:57:09.641Z,19.63
2018-11-21T12:59:56.335Z,21.20
2018-11-21T13:02:39.813Z,19.53
2018-11-21T13:05:28.032Z,21.07
2018-11-21T13:08:14.889Z,22.73
2018-11-21T13:11:01.887Z,20.97
2018-11-21T13:14:07.741Z,21.93
2018-11-21T13:16:54.546Z,20.57
2018-11-21T13:19:41.140Z,20.70
2018-11-21T13:22:36.583Z,21.87
2018-11-21T13:25:27.334Z,20.67
2018-11-21T13:28:30.435Z,19.47
2018-11-21T13:31:24.285Z,21.63
2018-11-21T13:34:30.892Z,23.77
2018-11-21T13:37:34.159Z,22.43
2018-11-21T13:40:31.206Z,24.67
2018-11-21T13:43:11.209Z,21.83
2018-11-21T13:46:17.511Z,21.00
2018-11-21T13:49:05.992Z,21.50
2018-11-21T13:52:08.639Z,21.07
2018-11-21T13:54:45.367Z,22.50
2018-11-21T13:57:14.263Z,21.00
2018-11-21T13:59:45.713Z,21.93
2018-11-21T14:02:14.541Z,22.27
2018-11-21T14:04:43.728Z,24.90
2018-11-21T14:07:15.522Z,22.70
2018-11-21T14:09:41.981Z,21.90
2018-11-21T14:12:10.874Z,22.07
2018-11-21T14:14:39.821Z,28.70
2018-11-21T14:17:08.984Z,24.87
2018-11-21T14:19:40.108Z,21.40
2018-11-21T14:22:09.064Z,21.80
2018-11-21T14:24:38.104Z,19.90
2018-11-21T14:27:07.067Z,21.80
2018-11-21T14:29:35.985Z,22.20
2018-11-21T14:32:05.595Z,19.93
2018-11-21T14:34:34.666Z,22.47
2018-11-21T14:37:03.372Z,20.93
2018-11-21T14:39:34.239Z,20.07
2018-11-21T14:42:08.335Z,19.83
2018-11-21T14:44:34.921Z,19.70
2018-11-21T14:47:05.172Z,19.23
2018-11-21T14:49:35.673Z,20.13
2018-11-21T14:52:03.699Z,20.40
2018-11-21T14:54:35.552Z,18.03
2018-11-21T14:57:04.363Z,20.23
2018-11-21T14:59:40.940Z,21.70
2018-11-21T15:02:10.111Z,19.63
2018-11-21T15:04:38.971Z,22.50
2018-11-21T15:07:14.328Z,20.43
2018-11-21T15:09:37.175Z,21.93
2018-11-21T15:12:08.278Z,19.23
2018-11-21T15:14:37.304Z,20.00
2018-11-21T15:17:06.342Z,19.27
2018-11-21T15:19:35.213Z,18.57
2018-11-21T15:22:04.461Z,17.20
2018-11-21T15:24:35.474Z,19.90
2018-11-21T15:27:05.578Z,19.77
2018-11-21T15:29:34.834Z,18.73
2018-11-21T15:32:06.365Z,18.20
2018-11-21T15:34:41.278Z,18.13
2018-11-21T15:37:12.257Z,19.73
2018-11-21T15:39:39.611Z,19.57
2018-11-21T15:42:14.041Z,19.50
2018-11-21T15:44:42.651Z,19.93
2018-11-21T15:47:13.235Z,19.27
2018-11-21T15:49:43.323Z,19.27
2018-11-21T15:52:19.850Z,18.83
2018-11-21T15:54:48.776Z,16.57
2018-11-21T15:57:17.704Z,18.10
2018-11-21T15:59:46.635Z,18.17
2018-11-21T16:02:15.460Z,16.60
2018-11-21T16:04:48.083Z,19.67
2018-11-21T16:07:13.611Z,21.80
2018-11-21T16:09:42.691Z,21.13
2018-11-21T16:12:11.594Z,20.40
2018-11-21T16:14:40.828Z,19.47
2018-11-21T16:17:10.259Z,18.73
2018-11-21T16:19:41.774Z,20.53
2018-11-21T16:22:16.251Z,19.47
2018-11-21T16:24:40.297Z,20.27
2018-11-21T16:27:09.172Z,22.30
2018-11-21T16:29:38.219Z,19.07
2018-11-21T16:32:07.011Z,22.37
2018-11-21T16:34:35.769Z,19.40
2018-11-21T16:37:04.678Z,19.93
2018-11-21T16:39:33.721Z,22.77
2018-11-21T16:42:02.521Z,22.60
2018-11-21T16:44:31.318Z,22.80
2018-11-21T16:47:02.774Z,23.10
2018-11-21T16:49:31.889Z,20.63
2018-11-21T16:52:00.713Z,21.97
2018-11-21T16:54:32.148Z,26.83
2018-11-21T16:56:58.283Z,23.83
2018-11-21T16:59:27.113Z,24.27
2018-11-21T17:01:56.035Z,23.17
2018-11-21T17:04:24.826Z,23.97
2018-11-21T17:06:53.707Z,23.50
2018-11-21T17:09:24.221Z,24.77
2018-11-21T17:11:51.752Z,26.13
2018-11-21T17:14:20.739Z,23.13
2018-11-21T17:16:49.944Z,24.63
2018-11-21T17:19:21.393Z,25.33
2018-11-21T17:21:47.959Z,23.97
2018-11-21T17:24:17.095Z,24.03
2018-11-21T17:26:45.935Z,22.03
2018-11-21T17:29:14.777Z,22.87
2018-11-21T17:31:46.279Z,24.63
2018-11-21T17:34:12.654Z,23.80
2018-11-21T17:36:41.598Z,25.77
2018-11-21T17:39:12.387Z,23.57
2018-11-21T17:41:41.462Z,30.30
2018-11-21T17:44:10.908Z,26.60
2018-11-21T17:46:39.848Z,26.50
2018-11-21T17:49:08.737Z,29.07
2018-11-21T17:51:37.804Z,23.67
2018-11-21T17:54:06.894Z,25.90
2018-11-21T17:56:36.014Z,25.17
2018-11-21T17:59:04.922Z,28.77
2018-11-21T18:01:34.130Z,27.50
2018-11-21T18:04:03.053Z,24.57
2018-11-21T18:06:31.869Z,26.33
2018-11-21T18:09:01.048Z,28.17
2018-11-21T18:11:30.215Z,26.10
2018-11-21T18:13:59.449Z,27.20
2018-11-21T18:16:28.901Z,28.30
2018-11-21T18:18:57.729Z,27.27
2018-11-21T18:21:29.745Z,27.00
2018-11-21T18:24:03.602Z,31.23
2018-11-21T18:26:32.815Z,25.30
2018-11-21T18:29:02.107Z,28.10
2018-11-21T18:31:35.702Z,27.60
2018-11-21T18:34:03.088Z,28.57
2018-11-21T18:36:32.377Z,28.97
2018-11-21T18:39:01.622Z,26.23
2018-11-21T18:41:30.651Z,25.47
2018-11-21T18:44:01.507Z,26.53
2018-11-21T18:46:28.627Z,25.03
2018-11-21T18:48:57.720Z,25.33
2018-11-21T18:51:27.238Z,25.17
2018-11-21T18:53:55.990Z,25.10
2018-11-21T18:56:28.968Z,26.30
2018-11-21T18:59:16.503Z,24.87
2018-11-21T19:01:46.823Z,25.43
2018-11-21T19:04:14.069Z,26.53
2018-11-21T19:06:43.023Z,27.13
2018-11-21T19:09:13.943Z,25.40
2018-11-21T19:11:42.796Z,25.30
2018-11-21T19:14:11.655Z,25.87
2018-11-21T19:16:40.422Z,27.60
2018-11-21T19:19:09.221Z,23.77
2018-11-21T19:21:38.075Z,28.63
2018-11-21T19:24:06.857Z,27.00
2018-11-21T19:26:35.654Z,30.00
2018-11-21T19:29:04.399Z,26.63
2018-11-21T19:31:33.150Z,28.60
2018-11-21T19:34:02.325Z,28.67
2018-11-21T19:36:31.081Z,28.87
2018-11-21T19:38:59.913Z,27.73
2018-11-21T19:41:28.778Z,24.10
2018-11-21T19:43:57.586Z,26.13
2018-11-21T19:46:26.403Z,27.47
2018-11-21T19:48:55.094Z,26.90
2018-11-21T19:51:23.851Z,28.27
2018-11-21T19:53:53.681Z,31.37
2018-11-21T19:56:22.565Z,27.63
2018-11-21T19:58:51.303Z,27.63
2018-11-21T20:01:20.337Z,32.10
2018-11-21T20:03:49.132Z,27.43
2018-11-21T20:06:18.041Z,29.70
2018-11-21T20:08:46.841Z,28.13
2018-11-21T20:11:16.497Z,28.27
2018-11-21T20:13:45.324Z,30.90
2018-11-21T20:16:14.012Z,30.13
2018-11-21T20:18:42.811Z,29.73
2018-11-21T20:21:11.584Z,31.17
2018-11-21T20:23:40.512Z,30.80
2018-11-21T20:26:09.333Z,29.87
2018-11-21T20:28:38.158Z,27.77
2018-11-21T20:31:06.975Z,29.10
2018-11-21T20:33:38.527Z,29.83
2018-11-21T20:36:07.378Z,31.37
2018-11-21T20:38:36.103Z,30.47
2018-11-21T20:41:05.022Z,31.13
2018-11-21T20:43:33.988Z,32.33
2018-11-21T20:46:02.744Z,29.70
2018-11-21T20:48:31.698Z,31.90
2018-11-21T20:51:00.539Z,34.80
2018-11-21T20:53:29.924Z,33.27
2018-11-21T20:55:59.093Z,30.80
2018-11-21T20:58:28.034Z,32.27
2018-11-21T21:00:57.431Z,32.53
2018-11-21T21:03:33.726Z,33.23
2018-11-21T21:06:02.751Z,28.50
2018-11-21T21:08:31.460Z,30.93
2018-11-21T21:11:00.441Z,33.10
2018-11-21T21:13:29.426Z,30.60
2018-11-21T21:16:01.071Z,32.17
2018-11-21T21:18:29.996Z,35.00
2018-11-21T21:20:58.912Z,34.90
2018-11-21T21:23:27.880Z,31.97
2018-11-21T21:25:57.008Z,32.13
2018-11-21T21:28:25.752Z,33.23
2018-11-21T21:30:54.488Z,34.50
2018-11-21T21:33:24.334Z,34.97
2018-11-21T21:35:53.112Z,32.73
2018-11-21T21:38:22.113Z,31.53
2018-11-21T21:40:50.849Z,34.37
